sensor_id;sensor_type;location;lat;lon;timestamp;pressure;altitude;pressure_sealevel;temperature;humidity
3780;BME280;1905;52.482;9.802;2023-07-24T00:02:06;99970.03;;;19.77;71.45
3780;BME280;1905;52.482;9.802;2023-07-24T00:04:34;99965.50;;;19.77;72.41
3780;BME280;1905;52.482;9.802;2023-07-24T00:07:02;99970.03;;;19.77;76.25
3780;BME280;1905;52.482;9.802;2023-07-24T00:09:30;99966.66;;;19.75;72.71
3780;BME280;1905;52.482;9.802;2023-07-24T00:11:59;99957.63;;;19.76;72.75
3780;BME280;1905;52.482;9.802;2023-07-24T00:14:27;99959.31;;;19.77;73.16
3780;BME280;1905;52.482;9.802;2023-07-24T00:16:55;99968.47;;;19.74;73.81
3780;BME280;1905;52.482;9.802;2023-07-24T00:19:23;99961.28;;;19.75;73.21
3780;BME280;1905;52.482;9.802;2023-07-24T00:21:50;99964.41;;;19.70;79.06
3780;BME280;1905;52.482;9.802;2023-07-24T00:24:18;99959.88;;;19.71;77.16
3780;BME280;1905;52.482;9.802;2023-07-24T00:26:47;99950.84;;;19.72;75.78
3780;BME280;1905;52.482;9.802;2023-07-24T00:29:16;99950.69;;;19.73;79.49
3780;BME280;1905;52.482;9.802;2023-07-24T00:31:43;99940.97;;;19.72;75.10
3780;BME280;1905;52.482;9.802;2023-07-24T00:34:11;99933.06;;;19.71;79.54
3780;BME280;1905;52.482;9.802;2023-07-24T00:36:39;99943.25;;;19.67;77.41
3780;BME280;1905;52.482;9.802;2023-07-24T00:39:07;99943.09;;;19.69;77.45
3780;BME280;1905;52.482;9.802;2023-07-24T00:41:35;99945.78;;;19.69;75.54
3780;BME280;1905;52.482;9.802;2023-07-24T00:44:03;99945.78;;;19.69;75.07
3780;BME280;1905;52.482;9.802;2023-07-24T00:46:33;99946.63;;;19.69;74.55
3780;BME280;1905;52.482;9.802;2023-07-24T00:49:04;99941.97;;;19.71;74.50
3780;BME280;1905;52.482;9.802;2023-07-24T00:51:32;99950.16;;;19.70;74.51
3780;BME280;1905;52.482;9.802;2023-07-24T00:54:02;99946.06;;;19.66;76.54
3780;BME280;1905;52.482;9.802;2023-07-24T00:56:31;99939.72;;;19.67;75.00
3780;BME280;1905;52.482;9.802;2023-07-24T00:59:00;99947.75;;;19.67;78.65
3780;BME280;1905;52.482;9.802;2023-07-24T01:01:29;99940.69;;;19.66;74.65
3780;BME280;1905;52.482;9.802;2023-07-24T01:03:59;99949.59;;;19.66;75.24
3780;BME280;1905;52.482;9.802;2023-07-24T01:06:31;99953.13;;;19.67;77.14
3780;BME280;1905;52.482;9.802;2023-07-24T01:08:59;99943.25;;;19.67;74.97
3780;BME280;1905;52.482;9.802;2023-07-24T01:11:32;99945.94;;;19.67;74.91
3780;BME280;1905;52.482;9.802;2023-07-24T01:14:13;99951.41;;;19.66;80.04
3780;BME280;1905;52.482;9.802;2023-07-24T01:16:47;99943.53;;;19.64;81.23
3780;BME280;1905;52.482;9.802;2023-07-24T01:19:33;99940.69;;;19.66;75.22
3780;BME280;1905;52.482;9.802;2023-07-24T01:22:10;99935.34;;;19.66;74.55
3780;BME280;1905;52.482;9.802;2023-07-24T01:24:50;99929.13;;;19.65;74.99
3780;BME280;1905;52.482;9.802;2023-07-24T01:27:23;99924.63;;;19.66;75.10
3780;BME280;1905;52.482;9.802;2023-07-24T01:29:52;99935.34;;;19.66;75.15
3780;BME280;1905;52.482;9.802;2023-07-24T01:32:20;99933.66;;;19.65;75.31
3780;BME280;1905;52.482;9.802;2023-07-24T01:34:48;99932.66;;;19.66;75.26
3780;BME280;1905;52.482;9.802;2023-07-24T01:37:16;99923.50;;;19.68;74.66
3780;BME280;1905;52.482;9.802;2023-07-24T01:39:46;99920.97;;;19.67;74.62
3780;BME280;1905;52.482;9.802;2023-07-24T01:42:16;99926.31;;;19.67;75.14
3780;BME280;1905;52.482;9.802;2023-07-24T01:44:51;99915.59;;;19.67;74.12
3780;BME280;1905;52.482;9.802;2023-07-24T01:47:18;99921.25;;;19.64;75.64
3780;BME280;1905;52.482;9.802;2023-07-24T01:49:47;99912.22;;;19.65;75.19
3780;BME280;1905;52.482;9.802;2023-07-24T01:52:15;99912.22;;;19.65;75.27
3780;BME280;1905;52.482;9.802;2023-07-24T01:54:44;99901.81;;;19.62;75.69
3780;BME280;1905;52.482;9.802;2023-07-24T01:57:12;99907.16;;;19.62;75.63
3780;BME280;1905;52.482;9.802;2023-07-24T01:59:39;99907.16;;;19.62;75.71
3780;BME280;1905;52.482;9.802;2023-07-24T02:02:10;99902.66;;;19.62;75.33
3780;BME280;1905;52.482;9.802;2023-07-24T02:04:38;99898.41;;;19.59;75.70
3780;BME280;1905;52.482;9.802;2023-07-24T02:07:07;99900.38;;;19.57;76.60
3780;BME280;1905;52.482;9.802;2023-07-24T02:09:34;99907.44;;;19.58;76.99
3780;BME280;1905;52.482;9.802;2023-07-24T02:12:03;99914.47;;;19.59;75.69
3780;BME280;1905;52.482;9.802;2023-07-24T02:14:31;99906.59;;;19.58;75.82
3780;BME280;1905;52.482;9.802;2023-07-24T02:16:59;99905.75;;;19.57;75.90
3780;BME280;1905;52.482;9.802;2023-07-24T02:19:28;99904.06;;;19.56;75.38
3780;BME280;1905;52.482;9.802;2023-07-24T02:21:56;99916.44;;;19.57;77.99
3780;BME280;1905;52.482;9.802;2023-07-24T02:24:24;99914.34;;;19.51;77.48
3780;BME280;1905;52.482;9.802;2023-07-24T02:26:52;99908.97;;;19.51;77.55
3780;BME280;1905;52.482;9.802;2023-07-24T02:29:20;99906.31;;;19.51;75.61
3780;BME280;1905;52.482;9.802;2023-07-24T02:31:49;99902.94;;;19.49;75.87
3780;BME280;1905;52.482;9.802;2023-07-24T02:34:17;99890.53;;;19.48;77.48
3780;BME280;1905;52.482;9.802;2023-07-24T02:36:47;99897.16;;;19.44;78.24
3780;BME280;1905;52.482;9.802;2023-07-24T02:39:15;99905.59;;;19.49;75.88
3780;BME280;1905;52.482;9.802;2023-07-24T02:41:42;99910.28;;;19.47;75.84
3780;BME280;1905;52.482;9.802;2023-07-24T02:44:10;99917.34;;;19.48;76.66
3780;BME280;1905;52.482;9.802;2023-07-24T02:46:38;99913.22;;;19.44;75.76
3780;BME280;1905;52.482;9.802;2023-07-24T02:49:05;99913.06;;;19.46;75.88
3780;BME280;1905;52.482;9.802;2023-07-24T02:51:33;99908.03;;;19.43;75.68
3780;BME280;1905;52.482;9.802;2023-07-24T02:54:03;99901.81;;;19.42;75.34
3780;BME280;1905;52.482;9.802;2023-07-24T02:56:31;99914.19;;;19.43;75.43
3780;BME280;1905;52.482;9.802;2023-07-24T02:58:58;99917.72;;;19.44;74.84
3780;BME280;1905;52.482;9.802;2023-07-24T03:01:26;99914.53;;;19.40;76.13
3780;BME280;1905;52.482;9.802;2023-07-24T03:03:54;99911.13;;;19.38;77.40
3780;BME280;1905;52.482;9.802;2023-07-24T03:06:22;99912.81;;;19.39;75.59
3780;BME280;1905;52.482;9.802;2023-07-24T03:08:50;99906.72;;;19.37;75.61
3780;BME280;1905;52.482;9.802;2023-07-24T03:11:19;99906.84;;;19.36;75.83
3780;BME280;1905;52.482;9.802;2023-07-24T03:13:46;99898.97;;;19.34;75.70
3780;BME280;1905;52.482;9.802;2023-07-24T03:16:14;99900.66;;;19.35;75.86
3780;BME280;1905;52.482;9.802;2023-07-24T03:18:43;99899.53;;;19.38;75.16
3780;BME280;1905;52.482;9.802;2023-07-24T03:21:11;99897.84;;;19.37;75.28
3780;BME280;1905;52.482;9.802;2023-07-24T03:23:38;99911.34;;;19.35;75.42
3780;BME280;1905;52.482;9.802;2023-07-24T03:26:06;99907.59;;;19.38;75.13
3780;BME280;1905;52.482;9.802;2023-07-24T03:28:35;99908.69;;;19.35;79.18
3780;BME280;1905;52.482;9.802;2023-07-24T03:31:03;99903.19;;;19.37;79.98
3780;BME280;1905;52.482;9.802;2023-07-24T03:33:31;99905.31;;;19.33;76.50
3780;BME280;1905;52.482;9.802;2023-07-24T03:35:59;99905.47;;;19.32;77.82
3780;BME280;1905;52.482;9.802;2023-07-24T03:38:27;99906.44;;;19.31;76.70
3780;BME280;1905;52.482;9.802;2023-07-24T03:40:55;99902.63;;;19.33;76.90
3780;BME280;1905;52.482;9.802;2023-07-24T03:43:23;99898.97;;;19.34;75.96
3780;BME280;1905;52.482;9.802;2023-07-24T03:45:52;99897.00;;;19.36;76.85
3780;BME280;1905;52.482;9.802;2023-07-24T03:48:20;99895.28;;;19.35;76.44
3780;BME280;1905;52.482;9.802;2023-07-24T03:50:49;99888.25;;;19.34;76.36
3780;BME280;1905;52.482;9.802;2023-07-24T03:53:17;99886.28;;;19.36;76.33
3780;BME280;1905;52.482;9.802;2023-07-24T03:55:44;99877.28;;;19.37;76.63
3780;BME280;1905;52.482;9.802;2023-07-24T03:58:12;99882.63;;;19.37;75.74
3780;BME280;1905;52.482;9.802;2023-07-24T04:00:40;99865.59;;;19.38;75.82
3780;BME280;1905;52.482;9.802;2023-07-24T04:03:09;99875.31;;;19.39;75.98
3780;BME280;1905;52.482;9.802;2023-07-24T04:05:37;99875.31;;;19.39;75.63
3780;BME280;1905;52.482;9.802;2023-07-24T04:08:05;99875.31;;;19.39;75.50
3780;BME280;1905;52.482;9.802;2023-07-24T04:10:33;99865.47;;;19.40;75.38
3780;BME280;1905;52.482;9.802;2023-07-24T04:13:01;99864.44;;;19.41;75.63
3780;BME280;1905;52.482;9.802;2023-07-24T04:15:29;99865.31;;;19.41;74.96
3780;BME280;1905;52.482;9.802;2023-07-24T04:17:57;99867.84;;;19.43;74.87
3780;BME280;1905;52.482;9.802;2023-07-24T04:20:26;99856.97;;;19.44;74.96
3780;BME280;1905;52.482;9.802;2023-07-24T04:22:54;99857.69;;;19.46;74.74
3780;BME280;1905;52.482;9.802;2023-07-24T04:25:22;99847.69;;;19.48;74.66
3780;BME280;1905;52.482;9.802;2023-07-24T04:27:50;99851.06;;;19.50;74.47
3780;BME280;1905;52.482;9.802;2023-07-24T04:30:17;99858.09;;;19.51;74.46
3780;BME280;1905;52.482;9.802;2023-07-24T04:32:45;99857.25;;;19.51;74.60
3780;BME280;1905;52.482;9.802;2023-07-24T04:35:13;99866.13;;;19.51;74.42
3780;BME280;1905;52.482;9.802;2023-07-24T04:37:42;99849.94;;;19.53;74.38
3780;BME280;1905;52.482;9.802;2023-07-24T04:40:11;99850.78;;;19.53;73.97
3780;BME280;1905;52.482;9.802;2023-07-24T04:42:39;99846.28;;;19.54;74.03
3780;BME280;1905;52.482;9.802;2023-07-24T04:45:08;99840.75;;;19.55;73.89
3780;BME280;1905;52.482;9.802;2023-07-24T04:47:36;99844.13;;;19.57;73.60
3780;BME280;1905;52.482;9.802;2023-07-24T04:50:30;99840.47;;;19.58;73.75
3780;BME280;1905;52.482;9.802;2023-07-24T04:53:00;99836.09;;;19.57;73.73
3780;BME280;1905;52.482;9.802;2023-07-24T04:55:28;99825.94;;;19.61;73.68
3780;BME280;1905;52.482;9.802;2023-07-24T04:57:56;99825.09;;;19.60;73.93
3780;BME280;1905;52.482;9.802;2023-07-24T05:00:24;99816.06;;;19.62;73.93
3780;BME280;1905;52.482;9.802;2023-07-24T05:02:53;99817.75;;;19.63;73.57
3780;BME280;1905;52.482;9.802;2023-07-24T05:05:21;99812.09;;;19.66;74.07
3780;BME280;1905;52.482;9.802;2023-07-24T05:07:48;99801.09;;;19.69;74.97
3780;BME280;1905;52.482;9.802;2023-07-24T05:10:17;99804.44;;;19.71;75.21
3780;BME280;1905;52.482;9.802;2023-07-24T05:12:45;99801.47;;;19.74;75.51
3780;BME280;1905;52.482;9.802;2023-07-24T05:15:13;99800.50;;;19.75;76.61
3780;BME280;1905;52.482;9.802;2023-07-24T05:17:43;99798.50;;;19.77;77.43
3780;BME280;1905;52.482;9.802;2023-07-24T05:20:11;99792.88;;;19.80;77.25
3780;BME280;1905;52.482;9.802;2023-07-24T05:22:39;99796.94;;;19.84;76.45
3780;BME280;1905;52.482;9.802;2023-07-24T05:25:08;99795.09;;;19.84;77.11
3780;BME280;1905;52.482;9.802;2023-07-24T05:27:37;99796.50;;;19.88;75.73
3780;BME280;1905;52.482;9.802;2023-07-24T05:30:06;99804.09;;;19.93;75.82
3780;BME280;1905;52.482;9.802;2023-07-24T05:32:34;99788.56;;;19.96;77.07
3780;BME280;1905;52.482;9.802;2023-07-24T05:35:02;99791.09;;;19.98;77.08
3780;BME280;1905;52.482;9.802;2023-07-24T05:37:30;99791.50;;;20.03;76.56
3780;BME280;1905;52.482;9.802;2023-07-24T05:39:58;99781.47;;;20.05;78.81
3780;BME280;1905;52.482;9.802;2023-07-24T05:42:26;99785.91;;;20.14;77.98
3780;BME280;1905;52.482;9.802;2023-07-24T05:44:55;99776.59;;;20.18;76.40
3780;BME280;1905;52.482;9.802;2023-07-24T05:47:23;99789.72;;;20.21;77.52
3780;BME280;1905;52.482;9.802;2023-07-24T05:49:51;99804.22;;;20.28;76.03
3780;BME280;1905;52.482;9.802;2023-07-24T05:52:18;99799.41;;;20.32;75.32
3780;BME280;1905;52.482;9.802;2023-07-24T05:54:46;99795.41;;;20.36;74.29
3780;BME280;1905;52.482;9.802;2023-07-24T05:57:14;99787.91;;;20.39;74.32
3780;BME280;1905;52.482;9.802;2023-07-24T05:59:41;99766.84;;;20.44;74.10
3780;BME280;1905;52.482;9.802;2023-07-24T06:02:11;99755.25;;;20.44;75.95
3780;BME280;1905;52.482;9.802;2023-07-24T06:04:39;99752.16;;;20.48;74.09
3780;BME280;1905;52.482;9.802;2023-07-24T06:07:07;99775.13;;;20.51;73.24
3780;BME280;1905;52.482;9.802;2023-07-24T06:09:35;99784.88;;;20.52;73.04
3780;BME280;1905;52.482;9.802;2023-07-24T06:12:03;99779.53;;;20.52;73.16
3780;BME280;1905;52.482;9.802;2023-07-24T06:14:31;99772.16;;;20.54;73.10
3780;BME280;1905;52.482;9.802;2023-07-24T06:16:59;99771.31;;;20.53;73.72
3780;BME280;1905;52.482;9.802;2023-07-24T06:19:29;99776.69;;;20.53;74.26
3780;BME280;1905;52.482;9.802;2023-07-24T06:21:57;99775.69;;;20.54;74.44
3780;BME280;1905;52.482;9.802;2023-07-24T06:24:24;99763.09;;;20.55;75.12
3780;BME280;1905;52.482;9.802;2023-07-24T06:26:52;99753.22;;;20.55;74.67
3780;BME280;1905;52.482;9.802;2023-07-24T06:29:20;99742.47;;;20.55;74.95
3780;BME280;1905;52.482;9.802;2023-07-24T06:31:49;99739.66;;;20.57;74.69
3780;BME280;1905;52.482;9.802;2023-07-24T06:34:17;99735.09;;;20.57;74.93
3780;BME280;1905;52.482;9.802;2023-07-24T06:36:46;99729.59;;;20.59;74.41
3780;BME280;1905;52.482;9.802;2023-07-24T06:39:14;99734.00;;;20.60;74.32
3780;BME280;1905;52.482;9.802;2023-07-24T06:41:42;99717.72;;;20.61;74.16
3780;BME280;1905;52.482;9.802;2023-07-24T06:44:10;99704.59;;;20.58;76.35
3780;BME280;1905;52.482;9.802;2023-07-24T06:46:38;99715.88;;;20.62;74.68
3780;BME280;1905;52.482;9.802;2023-07-24T06:49:06;99712.03;;;20.64;74.18
3780;BME280;1905;52.482;9.802;2023-07-24T06:51:33;99723.63;;;20.65;74.15
3780;BME280;1905;52.482;9.802;2023-07-24T06:54:02;99729.13;;;20.63;73.72
3780;BME280;1905;52.482;9.802;2023-07-24T06:56:31;99730.16;;;20.62;73.53
3780;BME280;1905;52.482;9.802;2023-07-24T06:58:59;99750.59;;;20.63;73.59
3780;BME280;1905;52.482;9.802;2023-07-24T07:01:26;99761.34;;;20.63;73.50
3780;BME280;1905;52.482;9.802;2023-07-24T07:03:54;99768.53;;;20.63;72.86
3780;BME280;1905;52.482;9.802;2023-07-24T07:06:22;99765.03;;;20.62;72.74
3780;BME280;1905;52.482;9.802;2023-07-24T07:08:53;99777.75;;;20.60;72.48
3780;BME280;1905;52.482;9.802;2023-07-24T07:11:21;99789.63;;;20.58;72.58
3780;BME280;1905;52.482;9.802;2023-07-24T07:13:49;99805.88;;;20.56;72.47
3780;BME280;1905;52.482;9.802;2023-07-24T07:16:17;99787.09;;;20.56;72.73
3780;BME280;1905;52.482;9.802;2023-07-24T07:18:46;99772.75;;;20.48;74.97
3780;BME280;1905;52.482;9.802;2023-07-24T07:21:14;99777.56;;;20.44;74.70
3780;BME280;1905;52.482;9.802;2023-07-24T07:23:42;99779.28;;;20.45;74.97
3780;BME280;1905;52.482;9.802;2023-07-24T07:26:12;99773.34;;;20.42;74.64
3780;BME280;1905;52.482;9.802;2023-07-24T07:28:42;99773.53;;;20.40;74.67
3780;BME280;1905;52.482;9.802;2023-07-24T07:31:11;99772.84;;;20.38;74.76
3780;BME280;1905;52.482;9.802;2023-07-24T07:33:39;99769.44;;;20.36;75.07
3780;BME280;1905;52.482;9.802;2023-07-24T07:36:07;99762.72;;;20.32;75.36
3780;BME280;1905;52.482;9.802;2023-07-24T07:38:34;99767.53;;;20.29;76.11
3780;BME280;1905;52.482;9.802;2023-07-24T07:41:04;99752.41;;;20.28;77.51
3780;BME280;1905;52.482;9.802;2023-07-24T07:43:33;99774.03;;;20.26;77.08
3780;BME280;1905;52.482;9.802;2023-07-24T07:46:03;99764.41;;;20.24;79.65
3780;BME280;1905;52.482;9.802;2023-07-24T07:48:31;99770.66;;;20.24;76.65
3780;BME280;1905;52.482;9.802;2023-07-24T07:50:59;99751.47;;;20.19;76.74
3780;BME280;1905;52.482;9.802;2023-07-24T07:53:28;99750.16;;;20.23;75.84
3780;BME280;1905;52.482;9.802;2023-07-24T07:55:59;99752.28;;;20.19;76.19
3780;BME280;1905;52.482;9.802;2023-07-24T07:58:27;99757.53;;;20.21;75.73
3780;BME280;1905;52.482;9.802;2023-07-24T08:00:55;99756.50;;;20.22;76.49
3780;BME280;1905;52.482;9.802;2023-07-24T08:03:24;99751.47;;;20.19;77.01
3780;BME280;1905;52.482;9.802;2023-07-24T08:05:56;99754.69;;;20.23;77.43
3780;BME280;1905;52.482;9.802;2023-07-24T08:08:25;99752.84;;;20.23;77.73
3780;BME280;1905;52.482;9.802;2023-07-24T08:10:53;99758.63;;;20.28;76.75
3780;BME280;1905;52.482;9.802;2023-07-24T08:13:20;99756.97;;;20.27;81.11
3780;BME280;1905;52.482;9.802;2023-07-24T08:15:49;99749.44;;;20.31;78.35
3780;BME280;1905;52.482;9.802;2023-07-24T08:18:17;99750.28;;;20.31;83.27
3780;BME280;1905;52.482;9.802;2023-07-24T08:20:46;99749.38;;;20.40;80.22
3780;BME280;1905;52.482;9.802;2023-07-24T08:23:14;99750.91;;;20.43;80.74
3780;BME280;1905;52.482;9.802;2023-07-24T08:25:50;99754.44;;;20.43;82.78
3780;BME280;1905;52.482;9.802;2023-07-24T08:28:18;99749.16;;;20.51;81.58
3780;BME280;1905;52.482;9.802;2023-07-24T08:30:46;99765.63;;;20.56;81.25
3780;BME280;1905;52.482;9.802;2023-07-24T08:33:14;99763.03;;;20.64;80.05
3780;BME280;1905;52.482;9.802;2023-07-24T08:35:42;99768.09;;;20.67;80.19
3780;BME280;1905;52.482;9.802;2023-07-24T08:38:11;99761.56;;;20.70;80.64
3780;BME280;1905;52.482;9.802;2023-07-24T08:40:40;99752.19;;;20.74;80.13
3780;BME280;1905;52.482;9.802;2023-07-24T08:43:08;99756.75;;;20.73;80.63
3780;BME280;1905;52.482;9.802;2023-07-24T08:45:37;99751.47;;;20.82;80.80
3780;BME280;1905;52.482;9.802;2023-07-24T08:48:05;99744.75;;;20.86;80.10
3780;BME280;1905;52.482;9.802;2023-07-24T08:50:34;99747.81;;;20.91;80.60
3780;BME280;1905;52.482;9.802;2023-07-24T08:53:03;99735.06;;;20.93;82.23
3780;BME280;1905;52.482;9.802;2023-07-24T08:55:33;99742.88;;;21.04;80.53
3780;BME280;1905;52.482;9.802;2023-07-24T08:58:02;99733.94;;;21.13;82.63
3780;BME280;1905;52.482;9.802;2023-07-24T09:00:32;99726.25;;;21.18;82.10
3780;BME280;1905;52.482;9.802;2023-07-24T09:03:00;99722.63;;;21.27;81.51
3780;BME280;1905;52.482;9.802;2023-07-24T09:05:28;99731.56;;;21.35;81.27
3780;BME280;1905;52.482;9.802;2023-07-24T09:07:56;99734.63;;;21.41;79.87
3780;BME280;1905;52.482;9.802;2023-07-24T09:10:24;99739.81;;;21.42;83.00
3780;BME280;1905;52.482;9.802;2023-07-24T09:12:54;99733.19;;;21.54;82.14
3780;BME280;1905;52.482;9.802;2023-07-24T09:15:22;99731.22;;;21.64;79.82
3780;BME280;1905;52.482;9.802;2023-07-24T09:17:50;99728.88;;;21.69;82.84
3780;BME280;1905;52.482;9.802;2023-07-24T09:20:20;99733.97;;;21.80;79.00
3780;BME280;1905;52.482;9.802;2023-07-24T09:22:52;99735.72;;;21.89;81.60
3780;BME280;1905;52.482;9.802;2023-07-24T09:25:41;99736.09;;;21.94;79.68
3780;BME280;1905;52.482;9.802;2023-07-24T09:28:11;99733.75;;;22.00;81.12
3780;BME280;1905;52.482;9.802;2023-07-24T09:30:40;99730.72;;;22.03;79.02
3780;BME280;1905;52.482;9.802;2023-07-24T09:33:08;99725.53;;;22.01;78.47
3780;BME280;1905;52.482;9.802;2023-07-24T09:35:36;99720.66;;;22.13;80.02
3780;BME280;1905;52.482;9.802;2023-07-24T09:38:05;99721.88;;;22.26;77.27
3780;BME280;1905;52.482;9.802;2023-07-24T09:40:38;99731.47;;;22.29;76.62
3780;BME280;1905;52.482;9.802;2023-07-24T09:43:19;99735.84;;;22.22;77.30
3780;BME280;1905;52.482;9.802;2023-07-24T09:46:05;99733.69;;;22.33;78.29
3780;BME280;1905;52.482;9.802;2023-07-24T09:48:35;99724.13;;;22.47;77.37
3780;BME280;1905;52.482;9.802;2023-07-24T09:51:11;99728.81;;;22.53;76.78
3780;BME280;1905;52.482;9.802;2023-07-24T09:53:43;99731.53;;;22.61;76.62
3780;BME280;1905;52.482;9.802;2023-07-24T09:56:15;99729.50;;;22.55;79.07
3780;BME280;1905;52.482;9.802;2023-07-24T09:58:49;99729.00;;;22.60;78.40
3780;BME280;1905;52.482;9.802;2023-07-24T10:01:20;99726.16;;;22.61;77.97
3780;BME280;1905;52.482;9.802;2023-07-24T10:03:49;99725.13;;;22.62;77.63
3780;BME280;1905;52.482;9.802;2023-07-24T10:06:18;99726.19;;;22.69;76.46
3780;BME280;1905;52.482;9.802;2023-07-24T10:08:46;99710.84;;;22.78;76.17
3780;BME280;1905;52.482;9.802;2023-07-24T10:11:14;99706.31;;;22.78;76.73
3780;BME280;1905;52.482;9.802;2023-07-24T10:13:42;99701.13;;;22.77;76.70
3780;BME280;1905;52.482;9.802;2023-07-24T10:16:12;99691.84;;;22.79;76.43
3780;BME280;1905;52.482;9.802;2023-07-24T10:18:43;99703.28;;;22.89;75.56
3780;BME280;1905;52.482;9.802;2023-07-24T10:21:12;99698.75;;;22.82;78.28
3780;BME280;1905;52.482;9.802;2023-07-24T10:23:42;99703.47;;;22.80;76.27
3780;BME280;1905;52.482;9.802;2023-07-24T10:26:10;99695.88;;;22.75;77.20
3780;BME280;1905;52.482;9.802;2023-07-24T10:28:39;99702.28;;;22.82;75.72
3780;BME280;1905;52.482;9.802;2023-07-24T10:31:21;99686.44;;;22.95;75.42
3780;BME280;1905;52.482;9.802;2023-07-24T10:33:50;99684.75;;;22.94;76.07
3780;BME280;1905;52.482;9.802;2023-07-24T10:36:20;99689.16;;;22.87;75.68
3780;BME280;1905;52.482;9.802;2023-07-24T10:38:52;99678.53;;;22.94;75.12
3780;BME280;1905;52.482;9.802;2023-07-24T10:41:21;99683.75;;;23.03;74.50
3780;BME280;1905;52.482;9.802;2023-07-24T10:43:50;99673.63;;;23.05;74.68
3780;BME280;1905;52.482;9.802;2023-07-24T10:46:21;99669.28;;;23.04;75.72
3780;BME280;1905;52.482;9.802;2023-07-24T10:48:50;99656.47;;;23.06;74.76
3780;BME280;1905;52.482;9.802;2023-07-24T10:51:19;99656.59;;;23.13;74.33
3780;BME280;1905;52.482;9.802;2023-07-24T10:53:49;99659.47;;;23.11;74.83
3780;BME280;1905;52.482;9.802;2023-07-24T10:56:16;99661.00;;;23.06;74.41
3780;BME280;1905;52.482;9.802;2023-07-24T10:58:44;99665.22;;;23.08;74.33
3780;BME280;1905;52.482;9.802;2023-07-24T11:01:12;99664.69;;;23.13;73.87
3780;BME280;1905;52.482;9.802;2023-07-24T11:03:42;99655.41;;;23.16;73.57
3780;BME280;1905;52.482;9.802;2023-07-24T11:06:15;99653.06;;;23.21;73.95
3780;BME280;1905;52.482;9.802;2023-07-24T11:08:51;99636.91;;;23.21;75.33
3780;BME280;1905;52.482;9.802;2023-07-24T11:11:19;99648.50;;;23.21;74.65
3780;BME280;1905;52.482;9.802;2023-07-24T11:13:47;99641.56;;;23.27;73.59
3780;BME280;1905;52.482;9.802;2023-07-24T11:16:19;99645.63;;;23.31;73.88
3780;BME280;1905;52.482;9.802;2023-07-24T11:18:49;99648.63;;;23.36;73.05
3780;BME280;1905;52.482;9.802;2023-07-24T11:21:22;99663.66;;;23.38;72.58
3780;BME280;1905;52.482;9.802;2023-07-24T11:23:51;99661.78;;;23.39;72.73
3780;BME280;1905;52.482;9.802;2023-07-24T11:26:19;99670.84;;;23.46;73.51
3780;BME280;1905;52.482;9.802;2023-07-24T11:28:52;99683.34;;;23.47;72.92
3780;BME280;1905;52.482;9.802;2023-07-24T11:31:20;99708.94;;;23.43;72.10
3780;BME280;1905;52.482;9.802;2023-07-24T11:33:51;99715.50;;;23.32;71.67
3780;BME280;1905;52.482;9.802;2023-07-24T11:36:20;99697.84;;;23.30;71.38
3780;BME280;1905;52.482;9.802;2023-07-24T11:38:50;99699.19;;;23.26;71.03
3780;BME280;1905;52.482;9.802;2023-07-24T11:41:20;99704.59;;;23.26;70.56
3780;BME280;1905;52.482;9.802;2023-07-24T11:43:49;99710.66;;;23.20;70.76
3780;BME280;1905;52.482;9.802;2023-07-24T11:46:23;99725.66;;;22.98;71.76
3780;BME280;1905;52.482;9.802;2023-07-24T11:48:53;99721.47;;;22.87;71.86
3780;BME280;1905;52.482;9.802;2023-07-24T11:51:28;99713.91;;;22.83;71.93
3780;BME280;1905;52.482;9.802;2023-07-24T11:54:15;99708.34;;;22.76;72.37
3780;BME280;1905;52.482;9.802;2023-07-24T11:56:43;99714.72;;;22.67;72.19
3780;BME280;1905;52.482;9.802;2023-07-24T11:59:12;99711.16;;;22.59;72.55
3780;BME280;1905;52.482;9.802;2023-07-24T12:01:40;99706.59;;;22.51;72.31
3780;BME280;1905;52.482;9.802;2023-07-24T12:04:10;99701.06;;;22.44;73.58
3780;BME280;1905;52.482;9.802;2023-07-24T12:06:39;99682.56;;;22.41;73.01
3780;BME280;1905;52.482;9.802;2023-07-24T12:09:07;99680.03;;;22.40;73.39
3780;BME280;1905;52.482;9.802;2023-07-24T12:11:39;99679.53;;;22.36;74.54
3780;BME280;1905;52.482;9.802;2023-07-24T12:14:07;99685.72;;;22.37;74.65
3780;BME280;1905;52.482;9.802;2023-07-24T12:16:36;99678.03;;;22.42;74.85
3780;BME280;1905;52.482;9.802;2023-07-24T12:19:05;99674.31;;;22.43;75.32
3780;BME280;1905;52.482;9.802;2023-07-24T12:21:34;99679.38;;;22.46;76.36
3780;BME280;1905;52.482;9.802;2023-07-24T12:24:02;99661.88;;;22.50;77.51
3780;BME280;1905;52.482;9.802;2023-07-24T12:26:30;99670.09;;;22.57;78.06
3780;BME280;1905;52.482;9.802;2023-07-24T12:28:58;99673.88;;;22.64;77.43
3780;BME280;1905;52.482;9.802;2023-07-24T12:31:26;99670.47;;;22.70;77.64
3780;BME280;1905;52.482;9.802;2023-07-24T12:33:55;99671.16;;;22.80;75.87
3780;BME280;1905;52.482;9.802;2023-07-24T12:36:24;99671.31;;;22.78;76.80
3780;BME280;1905;52.482;9.802;2023-07-24T12:38:54;99669.63;;;22.85;75.30
3780;BME280;1905;52.482;9.802;2023-07-24T12:41:21;99674.66;;;22.88;75.51
3780;BME280;1905;52.482;9.802;2023-07-24T12:43:49;99663.22;;;22.86;76.99
3780;BME280;1905;52.482;9.802;2023-07-24T12:46:17;99661.56;;;22.77;77.36
3780;BME280;1905;52.482;9.802;2023-07-24T12:48:45;99657.84;;;22.78;75.33
3780;BME280;1905;52.482;9.802;2023-07-24T12:51:14;99663.75;;;22.82;75.10
3780;BME280;1905;52.482;9.802;2023-07-24T12:53:42;99656.50;;;22.82;74.50
3780;BME280;1905;52.482;9.802;2023-07-24T12:56:25;99655.00;;;22.80;74.50
3780;BME280;1905;52.482;9.802;2023-07-24T12:58:53;99647.91;;;22.79;74.17
3780;BME280;1905;52.482;9.802;2023-07-24T13:01:21;99645.56;;;22.76;74.22
3780;BME280;1905;52.482;9.802;2023-07-24T13:03:50;99642.03;;;22.75;74.54
3780;BME280;1905;52.482;9.802;2023-07-24T13:06:18;99652.81;;;22.75;74.86
3780;BME280;1905;52.482;9.802;2023-07-24T13:08:46;99638.34;;;22.76;74.22
3780;BME280;1905;52.482;9.802;2023-07-24T13:11:14;99635.66;;;22.76;74.13
3780;BME280;1905;52.482;9.802;2023-07-24T13:13:43;99631.78;;;22.79;74.33
3780;BME280;1905;52.482;9.802;2023-07-24T13:16:11;99637.16;;;22.79;75.69
3780;BME280;1905;52.482;9.802;2023-07-24T13:18:39;99624.00;;;22.84;74.72
3780;BME280;1905;52.482;9.802;2023-07-24T13:21:07;99615.78;;;22.85;75.38
3780;BME280;1905;52.482;9.802;2023-07-24T13:23:35;99614.41;;;22.89;74.78
3780;BME280;1905;52.482;9.802;2023-07-24T13:26:04;99613.41;;;22.90;76.75
3780;BME280;1905;52.482;9.802;2023-07-24T13:28:34;99600.91;;;22.97;74.54
3780;BME280;1905;52.482;9.802;2023-07-24T13:31:12;99599.59;;;23.01;77.41
3780;BME280;1905;52.482;9.802;2023-07-24T13:33:41;99601.25;;;23.02;77.66